»·PEaware :: UAL589 KSBA-KSFO

UAL589 :: KSBA-KSFO

FLIGHT INFORMATION

Flight Status: Arrived
Operator:
United Airlines
More flights by this operator :: More flights under this callsign
Pilot: Utku A. (15598)
Aircraft: BOEING 737-800
(B738)
More flights by this aircraft type
Origin: KSBA Santa Barbara Mun
United States
Destination: KSFO San Francisco Intl
United States
More flights between these airports :: More routes between these airports
Route: GAUCH1 MQO SERFR SERFR3
File this flight plan on PilotEdge
Remarks:
Altitude:
(Current/Filed)
34,000ft
Speed:
(Current/Filed)
422kts
Departed: 05-Aug-18 07:06 PM
Arrived: 05-Aug-18 07:52 PM
Distance/Time
Traveled:
228nm/0:45
Distance/Time
To Go:
Arrived

Flight Plot

Page will automatically refresh every two minutes.

Flight plan parsing failed; only flown route is shown


Map Options




Map Legend


Flown Route
Filed Route
Departure Airport
Arrival Airport
Navaid (VOR, NDB)
Fix

Horizontal Profiles

Position Reports

Time Latitude Longitude Heading Altitude Ground
Speed
05-Aug-18 18:35 34.424259 -119.837039 105 20ft 0kts
05-Aug-18 18:36 34.424259 -119.837039 105 20ft 0kts
05-Aug-18 18:37 34.424259 -119.837039 105 20ft 0kts
05-Aug-18 18:38 34.424259 -119.837039 105 20ft 0kts
05-Aug-18 18:39 34.424259 -119.837039 105 20ft 0kts
05-Aug-18 18:40 34.424259 -119.837039 105 20ft 0kts
05-Aug-18 18:41 34.424259 -119.837039 105 20ft 0kts
05-Aug-18 18:42 34.424259 -119.837039 105 20ft 0kts
05-Aug-18 18:43 34.424259 -119.837039 105 20ft 0kts
05-Aug-18 18:44 34.424259 -119.837039 105 20ft 0kts
05-Aug-18 18:45 34.424259 -119.837039 105 20ft 0kts
05-Aug-18 18:46 34.424259 -119.837039 105 20ft 0kts
05-Aug-18 18:47 34.424259 -119.837039 105 20ft 0kts
05-Aug-18 18:48 34.424259 -119.837039 105 20ft 0kts
05-Aug-18 18:49 34.424259 -119.837039 105 20ft 0kts
05-Aug-18 18:50 34.424190 -119.837391 43 20ft 2kts
05-Aug-18 18:51 34.423623 -119.837393 345 20ft 2kts
05-Aug-18 18:52 34.423574 -119.837377 344 20ft 0kts
05-Aug-18 18:53 34.423574 -119.837377 344 20ft 0kts
05-Aug-18 18:54 34.424185 -119.837562 346 20ft 9kts
05-Aug-18 18:55 34.426698 -119.837646 87 20ft 8kts
05-Aug-18 18:56 34.426759 -119.835152 87 20ft 0kts
05-Aug-18 18:57 34.426760 -119.835134 86 20ft 0kts
05-Aug-18 18:58 34.427880 -119.835074 273 20ft 4kts
05-Aug-18 18:59 34.427699 -119.844285 268 20ft 0kts
05-Aug-18 19:00 34.427260 -119.846124 201 20ft 12kts
05-Aug-18 19:01 34.426605 -119.842378 90 20ft 15kts
05-Aug-18 19:02 34.426706 -119.837354 88 20ft 16kts
05-Aug-18 19:03 34.426751 -119.835305 88 20ft 0kts
05-Aug-18 19:04 34.426751 -119.835305 88 20ft 0kts
05-Aug-18 19:05 34.426751 -119.835305 88 20ft 0kts
05-Aug-18 19:06 34.427882 -119.835289 267 20ft 0kts
05-Aug-18 19:07 34.427672 -119.854245 268 355ft 149kts
05-Aug-18 19:08 34.427550 -119.908641 260 2871ft 174kts
05-Aug-18 19:09 34.424465 -119.976092 266 3713ft 213kts
05-Aug-18 19:10 34.423012 -120.057054 267 6126ft 266kts
05-Aug-18 19:11 34.424515 -120.148180 288 8010ft 273kts
05-Aug-18 19:12 34.480127 -120.208512 332 9100ft 284kts
05-Aug-18 19:13 34.554558 -120.251449 333 12047ft 314kts
05-Aug-18 19:14 34.628728 -120.310027 320 15527ft 329kts
05-Aug-18 19:15 34.701596 -120.378691 320 18829ft 346kts
05-Aug-18 19:16 34.783561 -120.443982 328 21781ft 365kts
05-Aug-18 19:17 34.873089 -120.503942 328 24344ft 382kts
05-Aug-18 19:18 34.967554 -120.567376 327 26760ft 395kts
05-Aug-18 19:19 35.064349 -120.632594 325 29014ft 405kts
05-Aug-18 19:20 35.158938 -120.696514 324 31322ft 404kts
05-Aug-18 19:21 35.255950 -120.762407 324 33574ft 401kts
05-Aug-18 19:22 35.353353 -120.833639 323 33945ft 421kts
05-Aug-18 19:23 35.456304 -120.909746 324 33941ft 443kts
05-Aug-18 19:24 35.561391 -120.987581 324 33939ft 443kts
05-Aug-18 19:25 35.667344 -121.066230 324 33939ft 448kts
05-Aug-18 19:26 35.774361 -121.145678 325 33938ft 450kts
05-Aug-18 19:27 35.881162 -121.224942 325 32837ft 443kts
05-Aug-18 19:28 35.986289 -121.302992 325 31041ft 445kts
05-Aug-18 19:29 36.090439 -121.380747 324 29216ft 424kts
05-Aug-18 19:30 36.169828 -121.442869 324 27755ft 418kts
05-Aug-18 19:31 36.265109 -121.517469 324 25939ft 398kts
05-Aug-18 19:32 36.357044 -121.589639 325 24118ft 385kts
05-Aug-18 19:33 36.445654 -121.659388 324 22410ft 374kts
05-Aug-18 19:34 36.532132 -121.727688 324 20727ft 366kts
05-Aug-18 19:35 36.616042 -121.794131 325 18732ft 353kts
05-Aug-18 19:36 36.697199 -121.858553 325 16737ft 342kts
05-Aug-18 19:37 36.781840 -121.906689 344 14744ft 336kts
05-Aug-18 19:38 36.871597 -121.931445 345 12741ft 326kts
05-Aug-18 19:39 36.958687 -121.955960 341 10897ft 316kts
05-Aug-18 19:40 37.042748 -121.988439 340 10143ft 300kts
05-Aug-18 19:41 37.115397 -122.016784 340 9551ft 287kts
05-Aug-18 19:42 37.189980 -122.045951 341 8744ft 272kts
05-Aug-18 19:43 37.260939 -122.073765 341 8005ft 262kts
05-Aug-18 19:44 37.330881 -122.101292 341 7146ft 262kts
05-Aug-18 19:45 37.397942 -122.126903 343 5983ft 242kts
05-Aug-18 19:46 37.458247 -122.147543 343 4534ft 213kts
05-Aug-18 19:47 37.513383 -122.166447 342 3109ft 199kts
05-Aug-18 19:48 37.548009 -122.206586 297 2665ft 165kts
05-Aug-18 19:49 37.567814 -122.254024 298 1852ft 137kts
05-Aug-18 19:50 37.584407 -122.293972 301 1199ft 125kts
05-Aug-18 19:51 37.600456 -122.331715 298 515ft 122kts
05-Aug-18 19:52 37.615427 -122.367206 298 11ft 64kts
05-Aug-18 19:53 37.618958 -122.378135 268 27ft 7kts
05-Aug-18 19:54 37.619529 -122.381702 298 31ft 12kts
05-Aug-18 19:55 37.619193 -122.383525 290 31ft 0kts
05-Aug-18 19:56 37.619193 -122.383525 290 31ft 0kts
05-Aug-18 19:57 37.619193 -122.383525 290 31ft 0kts
05-Aug-18 19:58 37.619193 -122.383525 290 31ft 0kts
05-Aug-18 19:59 37.619193 -122.383525 290 31ft 0kts
05-Aug-18 20:00 37.619193 -122.383525 290 31ft 0kts

Navigation Log

Ident Type
Flight plan parsing failed, navigation log unavailable